sensor_id;sensor_type;location;lat;lon;timestamp;P1;durP1;ratioP1;P2;durP2;ratioP2
1799;SDS011;919;48.274;12.292;2023-12-28T00:00:48;12.00;;;7.10;;
1799;SDS011;919;48.274;12.292;2023-12-28T00:03:16;8.90;;;8.00;;
1799;SDS011;919;48.274;12.292;2023-12-28T00:05:43;9.97;;;7.10;;
1799;SDS011;919;48.274;12.292;2023-12-28T00:08:10;14.03;;;7.27;;
1799;SDS011;919;48.274;12.292;2023-12-28T00:10:36;10.60;;;8.03;;
1799;SDS011;919;48.274;12.292;2023-12-28T00:13:03;9.47;;;7.10;;
1799;SDS011;919;48.274;12.292;2023-12-28T00:15:30;10.40;;;7.07;;
1799;SDS011;919;48.274;12.292;2023-12-28T00:17:56;7.37;;;5.67;;
1799;SDS011;919;48.274;12.292;2023-12-28T00:20:24;8.40;;;6.20;;
1799;SDS011;919;48.274;12.292;2023-12-28T00:22:51;7.20;;;6.30;;
1799;SDS011;919;48.274;12.292;2023-12-28T00:25:18;10.27;;;6.40;;
1799;SDS011;919;48.274;12.292;2023-12-28T00:27:44;11.03;;;6.63;;
1799;SDS011;919;48.274;12.292;2023-12-28T00:30:12;8.40;;;7.20;;
1799;SDS011;919;48.274;12.292;2023-12-28T00:32:39;9.40;;;6.37;;
1799;SDS011;919;48.274;12.292;2023-12-28T00:35:08;11.33;;;7.33;;
1799;SDS011;919;48.274;12.292;2023-12-28T00:37:36;8.90;;;7.60;;
1799;SDS011;919;48.274;12.292;2023-12-28T00:40:03;8.90;;;7.10;;
1799;SDS011;919;48.274;12.292;2023-12-28T00:42:30;8.53;;;6.40;;
1799;SDS011;919;48.274;12.292;2023-12-28T00:44:57;11.17;;;6.90;;
1799;SDS011;919;48.274;12.292;2023-12-28T00:47:24;8.03;;;6.63;;
1799;SDS011;919;48.274;12.292;2023-12-28T00:49:51;8.23;;;5.67;;
1799;SDS011;919;48.274;12.292;2023-12-28T00:52:17;9.43;;;6.63;;
1799;SDS011;919;48.274;12.292;2023-12-28T00:54:45;8.50;;;6.60;;
1799;SDS011;919;48.274;12.292;2023-12-28T00:57:12;7.63;;;6.33;;
1799;SDS011;919;48.274;12.292;2023-12-28T00:59:39;9.10;;;6.57;;
1799;SDS011;919;48.274;12.292;2023-12-28T01:02:05;7.27;;;6.30;;
1799;SDS011;919;48.274;12.292;2023-12-28T01:04:32;9.23;;;6.07;;
1799;SDS011;919;48.274;12.292;2023-12-28T01:06:59;8.47;;;6.40;;
1799;SDS011;919;48.274;12.292;2023-12-28T01:09:27;11.10;;;6.90;;
1799;SDS011;919;48.274;12.292;2023-12-28T01:11:55;10.30;;;7.07;;
1799;SDS011;919;48.274;12.292;2023-12-28T01:14:21;10.93;;;7.00;;
1799;SDS011;919;48.274;12.292;2023-12-28T01:16:48;14.97;;;7.30;;
1799;SDS011;919;48.274;12.292;2023-12-28T01:19:15;8.43;;;6.60;;
1799;SDS011;919;48.274;12.292;2023-12-28T01:21:41;6.90;;;5.60;;
1799;SDS011;919;48.274;12.292;2023-12-28T01:24:08;13.50;;;7.00;;
1799;SDS011;919;48.274;12.292;2023-12-28T01:26:35;7.77;;;6.60;;
1799;SDS011;919;48.274;12.292;2023-12-28T01:29:03;11.30;;;7.03;;
1799;SDS011;919;48.274;12.292;2023-12-28T01:31:30;6.73;;;5.83;;
1799;SDS011;919;48.274;12.292;2023-12-28T01:33:57;10.87;;;6.47;;
1799;SDS011;919;48.274;12.292;2023-12-28T01:36:23;13.17;;;7.33;;
1799;SDS011;919;48.274;12.292;2023-12-28T01:38:51;9.27;;;6.17;;
1799;SDS011;919;48.274;12.292;2023-12-28T01:41:17;11.53;;;6.30;;
1799;SDS011;919;48.274;12.292;2023-12-28T01:43:44;8.80;;;6.03;;
1799;SDS011;919;48.274;12.292;2023-12-28T01:46:14;6.67;;;5.87;;
1799;SDS011;919;48.274;12.292;2023-12-28T01:48:43;9.10;;;6.30;;
1799;SDS011;919;48.274;12.292;2023-12-28T01:51:11;10.60;;;6.67;;
1799;SDS011;919;48.274;12.292;2023-12-28T01:53:38;6.93;;;6.13;;
1799;SDS011;919;48.274;12.292;2023-12-28T01:56:05;6.70;;;5.80;;
1799;SDS011;919;48.274;12.292;2023-12-28T01:58:32;7.10;;;6.07;;
1799;SDS011;919;48.274;12.292;2023-12-28T02:01:01;9.07;;;6.50;;
1799;SDS011;919;48.274;12.292;2023-12-28T02:03:29;6.50;;;5.80;;
1799;SDS011;919;48.274;12.292;2023-12-28T02:05:56;8.27;;;5.50;;
1799;SDS011;919;48.274;12.292;2023-12-28T02:08:23;7.50;;;6.03;;
1799;SDS011;919;48.274;12.292;2023-12-28T02:10:49;6.60;;;5.70;;
1799;SDS011;919;48.274;12.292;2023-12-28T02:13:16;8.97;;;6.27;;
1799;SDS011;919;48.274;12.292;2023-12-28T02:15:43;7.13;;;5.90;;
1799;SDS011;919;48.274;12.292;2023-12-28T02:18:14;6.27;;;5.67;;
1799;SDS011;919;48.274;12.292;2023-12-28T02:20:47;6.37;;;5.77;;
1799;SDS011;919;48.274;12.292;2023-12-28T02:23:15;5.43;;;4.93;;
1799;SDS011;919;48.274;12.292;2023-12-28T02:25:43;8.87;;;6.20;;
1799;SDS011;919;48.274;12.292;2023-12-28T02:28:10;8.17;;;6.33;;
1799;SDS011;919;48.274;12.292;2023-12-28T02:30:37;5.97;;;5.30;;
1799;SDS011;919;48.274;12.292;2023-12-28T02:33:07;6.47;;;5.53;;
1799;SDS011;919;48.274;12.292;2023-12-28T02:35:39;7.80;;;6.20;;
1799;SDS011;919;48.274;12.292;2023-12-28T02:38:09;8.63;;;6.07;;
1799;SDS011;919;48.274;12.292;2023-12-28T02:40:37;6.30;;;5.60;;
1799;SDS011;919;48.274;12.292;2023-12-28T02:43:06;7.07;;;6.37;;
1799;SDS011;919;48.274;12.292;2023-12-28T02:45:34;8.33;;;5.60;;
1799;SDS011;919;48.274;12.292;2023-12-28T02:48:01;6.23;;;5.60;;
1799;SDS011;919;48.274;12.292;2023-12-28T02:50:28;5.73;;;5.23;;
1799;SDS011;919;48.274;12.292;2023-12-28T02:52:55;7.17;;;5.77;;
1799;SDS011;919;48.274;12.292;2023-12-28T02:55:21;7.33;;;5.87;;
1799;SDS011;919;48.274;12.292;2023-12-28T02:57:49;6.27;;;5.50;;
1799;SDS011;919;48.274;12.292;2023-12-28T03:00:17;9.10;;;6.33;;
1799;SDS011;919;48.274;12.292;2023-12-28T03:02:44;8.80;;;6.03;;
1799;SDS011;919;48.274;12.292;2023-12-28T03:05:11;7.10;;;6.40;;
1799;SDS011;919;48.274;12.292;2023-12-28T03:07:37;10.23;;;6.83;;
1799;SDS011;919;48.274;12.292;2023-12-28T03:10:05;9.17;;;6.00;;
1799;SDS011;919;48.274;12.292;2023-12-28T03:12:33;6.90;;;5.70;;
1799;SDS011;919;48.274;12.292;2023-12-28T03:15:00;7.93;;;6.57;;
1799;SDS011;919;48.274;12.292;2023-12-28T03:17:28;7.53;;;6.43;;
1799;SDS011;919;48.274;12.292;2023-12-28T03:19:55;6.53;;;5.57;;
1799;SDS011;919;48.274;12.292;2023-12-28T03:22:22;8.83;;;6.07;;
1799;SDS011;919;48.274;12.292;2023-12-28T03:24:49;6.67;;;5.37;;
1799;SDS011;919;48.274;12.292;2023-12-28T03:27:16;5.37;;;4.73;;
1799;SDS011;919;48.274;12.292;2023-12-28T03:29:42;5.53;;;4.77;;
1799;SDS011;919;48.274;12.292;2023-12-28T03:32:09;12.90;;;4.90;;
1799;SDS011;919;48.274;12.292;2023-12-28T03:34:38;7.30;;;5.00;;
1799;SDS011;919;48.274;12.292;2023-12-28T03:37:05;6.87;;;5.77;;
1799;SDS011;919;48.274;12.292;2023-12-28T03:39:32;6.73;;;5.30;;
1799;SDS011;919;48.274;12.292;2023-12-28T03:41:59;6.73;;;5.50;;
1799;SDS011;919;48.274;12.292;2023-12-28T03:44:25;6.93;;;5.30;;
1799;SDS011;919;48.274;12.292;2023-12-28T03:46:52;4.70;;;4.20;;
1799;SDS011;919;48.274;12.292;2023-12-28T03:49:19;4.93;;;4.43;;
1799;SDS011;919;48.274;12.292;2023-12-28T03:51:48;6.90;;;5.67;;
1799;SDS011;919;48.274;12.292;2023-12-28T03:54:16;8.97;;;6.43;;
1799;SDS011;919;48.274;12.292;2023-12-28T03:56:43;7.40;;;5.13;;
1799;SDS011;919;48.274;12.292;2023-12-28T03:59:10;7.60;;;5.17;;
1799;SDS011;919;48.274;12.292;2023-12-28T04:01:37;11.30;;;6.93;;
1799;SDS011;919;48.274;12.292;2023-12-28T04:04:04;8.20;;;5.23;;
1799;SDS011;919;48.274;12.292;2023-12-28T04:06:30;11.73;;;5.33;;
1799;SDS011;919;48.274;12.292;2023-12-28T04:08:58;7.17;;;4.90;;
1799;SDS011;919;48.274;12.292;2023-12-28T04:11:25;7.17;;;4.90;;
1799;SDS011;919;48.274;12.292;2023-12-28T04:13:52;9.33;;;5.50;;
1799;SDS011;919;48.274;12.292;2023-12-28T04:16:18;5.77;;;5.07;;
1799;SDS011;919;48.274;12.292;2023-12-28T04:18:45;9.10;;;5.23;;
1799;SDS011;919;48.274;12.292;2023-12-28T04:21:12;6.17;;;5.10;;
1799;SDS011;919;48.274;12.292;2023-12-28T04:23:39;5.67;;;4.80;;
1799;SDS011;919;48.274;12.292;2023-12-28T04:26:08;8.23;;;5.50;;
1799;SDS011;919;48.274;12.292;2023-12-28T04:28:35;7.57;;;5.20;;
1799;SDS011;919;48.274;12.292;2023-12-28T04:31:02;6.10;;;4.80;;
1799;SDS011;919;48.274;12.292;2023-12-28T04:33:30;6.43;;;5.00;;
1799;SDS011;919;48.274;12.292;2023-12-28T04:35:57;7.00;;;5.30;;
1799;SDS011;919;48.274;12.292;2023-12-28T04:38:26;7.77;;;5.33;;
1799;SDS011;919;48.274;12.292;2023-12-28T04:40:53;9.63;;;4.93;;
1799;SDS011;919;48.274;12.292;2023-12-28T04:43:21;7.10;;;4.57;;
1799;SDS011;919;48.274;12.292;2023-12-28T04:45:48;6.80;;;5.50;;
1799;SDS011;919;48.274;12.292;2023-12-28T04:48:15;6.17;;;5.10;;
1799;SDS011;919;48.274;12.292;2023-12-28T04:50:45;6.43;;;5.20;;
1799;SDS011;919;48.274;12.292;2023-12-28T04:53:12;4.60;;;4.20;;
1799;SDS011;919;48.274;12.292;2023-12-28T04:55:39;6.33;;;4.73;;
1799;SDS011;919;48.274;12.292;2023-12-28T04:58:06;9.67;;;5.63;;
1799;SDS011;919;48.274;12.292;2023-12-28T05:00:34;6.13;;;4.83;;
1799;SDS011;919;48.274;12.292;2023-12-28T05:03:01;5.50;;;4.90;;
1799;SDS011;919;48.274;12.292;2023-12-28T05:05:27;8.20;;;5.03;;
1799;SDS011;919;48.274;12.292;2023-12-28T05:07:54;5.77;;;4.87;;
1799;SDS011;919;48.274;12.292;2023-12-28T05:10:21;8.23;;;5.30;;
1799;SDS011;919;48.274;12.292;2023-12-28T05:12:47;7.87;;;5.20;;
1799;SDS011;919;48.274;12.292;2023-12-28T05:15:14;7.07;;;5.00;;
1799;SDS011;919;48.274;12.292;2023-12-28T05:17:44;5.97;;;4.97;;
1799;SDS011;919;48.274;12.292;2023-12-28T05:20:11;6.80;;;5.00;;
1799;SDS011;919;48.274;12.292;2023-12-28T05:22:37;5.77;;;4.90;;
1799;SDS011;919;48.274;12.292;2023-12-28T05:25:04;7.53;;;5.37;;
1799;SDS011;919;48.274;12.292;2023-12-28T05:27:32;5.10;;;4.63;;
1799;SDS011;919;48.274;12.292;2023-12-28T05:29:59;4.80;;;4.30;;
1799;SDS011;919;48.274;12.292;2023-12-28T05:32:25;13.40;;;6.70;;
1799;SDS011;919;48.274;12.292;2023-12-28T05:34:53;5.53;;;4.43;;
1799;SDS011;919;48.274;12.292;2023-12-28T05:37:20;4.80;;;4.30;;
1799;SDS011;919;48.274;12.292;2023-12-28T05:39:47;6.60;;;5.00;;
1799;SDS011;919;48.274;12.292;2023-12-28T05:42:13;5.93;;;5.13;;
1799;SDS011;919;48.274;12.292;2023-12-28T05:44:40;7.87;;;4.83;;
1799;SDS011;919;48.274;12.292;2023-12-28T05:47:06;5.43;;;4.97;;
1799;SDS011;919;48.274;12.292;2023-12-28T05:49:33;6.43;;;5.20;;
1799;SDS011;919;48.274;12.292;2023-12-28T05:52:01;8.00;;;4.17;;
1799;SDS011;919;48.274;12.292;2023-12-28T05:54:28;7.13;;;5.00;;
1799;SDS011;919;48.274;12.292;2023-12-28T05:56:55;6.70;;;4.40;;
1799;SDS011;919;48.274;12.292;2023-12-28T05:59:22;5.80;;;4.03;;
1799;SDS011;919;48.274;12.292;2023-12-28T06:01:51;7.77;;;6.20;;
1799;SDS011;919;48.274;12.292;2023-12-28T06:04:17;6.80;;;4.80;;
1799;SDS011;919;48.274;12.292;2023-12-28T06:06:44;5.60;;;4.80;;
1799;SDS011;919;48.274;12.292;2023-12-28T06:09:12;6.13;;;5.53;;
1799;SDS011;919;48.274;12.292;2023-12-28T06:11:39;6.40;;;5.50;;
1799;SDS011;919;48.274;12.292;2023-12-28T06:14:05;10.03;;;5.60;;
1799;SDS011;919;48.274;12.292;2023-12-28T06:16:33;6.97;;;5.43;;
1799;SDS011;919;48.274;12.292;2023-12-28T06:19:00;9.60;;;5.03;;
1799;SDS011;919;48.274;12.292;2023-12-28T06:21:27;6.30;;;4.83;;
1799;SDS011;919;48.274;12.292;2023-12-28T06:23:55;9.80;;;5.80;;
1799;SDS011;919;48.274;12.292;2023-12-28T06:26:23;6.53;;;5.40;;
1799;SDS011;919;48.274;12.292;2023-12-28T06:28:50;4.77;;;4.27;;
1799;SDS011;919;48.274;12.292;2023-12-28T06:31:16;11.77;;;5.97;;
1799;SDS011;919;48.274;12.292;2023-12-28T06:33:43;7.03;;;4.87;;
1799;SDS011;919;48.274;12.292;2023-12-28T06:36:10;8.03;;;5.40;;
1799;SDS011;919;48.274;12.292;2023-12-28T06:38:38;8.90;;;5.20;;
1799;SDS011;919;48.274;12.292;2023-12-28T06:41:09;5.07;;;4.50;;
1799;SDS011;919;48.274;12.292;2023-12-28T06:43:38;7.90;;;4.90;;
1799;SDS011;919;48.274;12.292;2023-12-28T06:46:05;6.53;;;4.97;;
1799;SDS011;919;48.274;12.292;2023-12-28T06:48:31;8.37;;;5.23;;
1799;SDS011;919;48.274;12.292;2023-12-28T06:50:58;6.60;;;5.47;;
1799;SDS011;919;48.274;12.292;2023-12-28T06:53:25;5.33;;;4.83;;
1799;SDS011;919;48.274;12.292;2023-12-28T06:55:51;6.73;;;4.70;;
1799;SDS011;919;48.274;12.292;2023-12-28T06:58:18;7.97;;;4.50;;
1799;SDS011;919;48.274;12.292;2023-12-28T07:00:46;6.47;;;4.93;;
1799;SDS011;919;48.274;12.292;2023-12-28T07:03:13;8.87;;;5.20;;
1799;SDS011;919;48.274;12.292;2023-12-28T07:05:40;5.40;;;4.83;;
1799;SDS011;919;48.274;12.292;2023-12-28T07:08:06;6.80;;;4.90;;
1799;SDS011;919;48.274;12.292;2023-12-28T07:10:33;6.47;;;4.00;;
1799;SDS011;919;48.274;12.292;2023-12-28T07:13:00;6.73;;;4.50;;
1799;SDS011;919;48.274;12.292;2023-12-28T07:15:27;5.83;;;4.27;;
1799;SDS011;919;48.274;12.292;2023-12-28T07:17:55;6.47;;;4.30;;
1799;SDS011;919;48.274;12.292;2023-12-28T07:20:22;5.67;;;4.30;;
1799;SDS011;919;48.274;12.292;2023-12-28T07:22:49;7.13;;;4.23;;
1799;SDS011;919;48.274;12.292;2023-12-28T07:25:15;6.37;;;4.17;;
1799;SDS011;919;48.274;12.292;2023-12-28T07:27:42;5.00;;;4.20;;
1799;SDS011;919;48.274;12.292;2023-12-28T07:30:09;4.87;;;4.23;;
1799;SDS011;919;48.274;12.292;2023-12-28T07:32:37;4.47;;;3.70;;
1799;SDS011;919;48.274;12.292;2023-12-28T07:35:05;7.33;;;4.10;;
1799;SDS011;919;48.274;12.292;2023-12-28T07:37:32;4.50;;;4.00;;
1799;SDS011;919;48.274;12.292;2023-12-28T07:39:59;4.03;;;3.60;;
1799;SDS011;919;48.274;12.292;2023-12-28T07:42:25;5.27;;;4.67;;
1799;SDS011;919;48.274;12.292;2023-12-28T07:44:52;5.90;;;4.10;;
1799;SDS011;919;48.274;12.292;2023-12-28T07:47:19;5.07;;;4.10;;
1799;SDS011;919;48.274;12.292;2023-12-28T07:49:46;5.70;;;4.30;;
1799;SDS011;919;48.274;12.292;2023-12-28T07:52:14;4.63;;;3.63;;
1799;SDS011;919;48.274;12.292;2023-12-28T07:54:41;5.30;;;4.30;;
1799;SDS011;919;48.274;12.292;2023-12-28T07:57:07;5.50;;;4.13;;
1799;SDS011;919;48.274;12.292;2023-12-28T07:59:34;6.80;;;4.43;;
1799;SDS011;919;48.274;12.292;2023-12-28T08:02:01;6.80;;;4.27;;
1799;SDS011;919;48.274;12.292;2023-12-28T08:04:27;5.13;;;4.03;;
1799;SDS011;919;48.274;12.292;2023-12-28T08:06:54;5.33;;;4.50;;
1799;SDS011;919;48.274;12.292;2023-12-28T08:09:22;5.20;;;3.83;;
1799;SDS011;919;48.274;12.292;2023-12-28T08:11:49;6.40;;;5.30;;
1799;SDS011;919;48.274;12.292;2023-12-28T08:14:15;7.70;;;5.40;;
1799;SDS011;919;48.274;12.292;2023-12-28T08:16:42;6.07;;;5.37;;
1799;SDS011;919;48.274;12.292;2023-12-28T08:19:09;10.50;;;5.47;;
1799;SDS011;919;48.274;12.292;2023-12-28T08:21:35;5.53;;;4.10;;
1799;SDS011;919;48.274;12.292;2023-12-28T08:24:02;7.27;;;5.03;;
1799;SDS011;919;48.274;12.292;2023-12-28T08:26:31;8.90;;;4.47;;
1799;SDS011;919;48.274;12.292;2023-12-28T08:28:57;6.83;;;4.60;;
1799;SDS011;919;48.274;12.292;2023-12-28T08:31:24;6.87;;;4.37;;
1799;SDS011;919;48.274;12.292;2023-12-28T08:33:51;5.50;;;4.43;;
1799;SDS011;919;48.274;12.292;2023-12-28T08:36:17;5.73;;;4.83;;
1799;SDS011;919;48.274;12.292;2023-12-28T08:38:44;6.37;;;4.43;;
1799;SDS011;919;48.274;12.292;2023-12-28T08:41:17;5.77;;;3.90;;
1799;SDS011;919;48.274;12.292;2023-12-28T08:43:45;4.20;;;3.80;;
1799;SDS011;919;48.274;12.292;2023-12-28T08:46:13;8.03;;;4.97;;
1799;SDS011;919;48.274;12.292;2023-12-28T08:48:41;5.33;;;3.70;;
1799;SDS011;919;48.274;12.292;2023-12-28T08:51:09;4.23;;;3.83;;
1799;SDS011;919;48.274;12.292;2023-12-28T08:53:36;4.73;;;4.20;;
1799;SDS011;919;48.274;12.292;2023-12-28T08:56:03;4.10;;;3.80;;
1799;SDS011;919;48.274;12.292;2023-12-28T08:58:38;6.70;;;4.30;;
1799;SDS011;919;48.274;12.292;2023-12-28T09:01:06;5.23;;;4.10;;
1799;SDS011;919;48.274;12.292;2023-12-28T09:03:33;3.87;;;3.50;;
1799;SDS011;919;48.274;12.292;2023-12-28T09:05:59;4.00;;;3.60;;
1799;SDS011;919;48.274;12.292;2023-12-28T09:08:26;3.80;;;3.50;;
1799;SDS011;919;48.274;12.292;2023-12-28T09:10:53;7.27;;;5.00;;
1799;SDS011;919;48.274;12.292;2023-12-28T09:13:19;5.17;;;4.10;;
1799;SDS011;919;48.274;12.292;2023-12-28T09:15:46;4.73;;;4.33;;
1799;SDS011;919;48.274;12.292;2023-12-28T09:18:14;4.83;;;3.77;;
1799;SDS011;919;48.274;12.292;2023-12-28T09:20:40;9.80;;;4.77;;
1799;SDS011;919;48.274;12.292;2023-12-28T09:23:08;5.50;;;4.07;;
1799;SDS011;919;48.274;12.292;2023-12-28T09:25:35;6.10;;;4.00;;
1799;SDS011;919;48.274;12.292;2023-12-28T09:28:04;5.33;;;4.83;;
1799;SDS011;919;48.274;12.292;2023-12-28T09:30:30;4.87;;;4.40;;
1799;SDS011;919;48.274;12.292;2023-12-28T09:32:57;4.90;;;4.17;;
1799;SDS011;919;48.274;12.292;2023-12-28T09:35:25;4.50;;;4.10;;
1799;SDS011;919;48.274;12.292;2023-12-28T09:37:52;4.60;;;4.20;;
1799;SDS011;919;48.274;12.292;2023-12-28T09:40:19;4.70;;;4.00;;
1799;SDS011;919;48.274;12.292;2023-12-28T09:42:48;6.50;;;3.60;;
1799;SDS011;919;48.274;12.292;2023-12-28T09:45:22;4.40;;;4.00;;
1799;SDS011;919;48.274;12.292;2023-12-28T09:47:49;5.10;;;4.57;;
1799;SDS011;919;48.274;12.292;2023-12-28T09:50:16;4.17;;;3.77;;
1799;SDS011;919;48.274;12.292;2023-12-28T09:52:45;4.87;;;4.10;;
1799;SDS011;919;48.274;12.292;2023-12-28T09:55:12;4.40;;;4.00;;
1799;SDS011;919;48.274;12.292;2023-12-28T09:57:39;5.43;;;4.10;;
1799;SDS011;919;48.274;12.292;2023-12-28T10:00:07;5.53;;;4.33;;
1799;SDS011;919;48.274;12.292;2023-12-28T10:02:36;5.30;;;4.40;;
1799;SDS011;919;48.274;12.292;2023-12-28T10:05:05;7.03;;;5.00;;
1799;SDS011;919;48.274;12.292;2023-12-28T10:07:32;5.73;;;4.20;;
1799;SDS011;919;48.274;12.292;2023-12-28T10:10:08;4.77;;;3.80;;
1799;SDS011;919;48.274;12.292;2023-12-28T10:12:35;5.53;;;4.73;;
1799;SDS011;919;48.274;12.292;2023-12-28T10:15:02;6.13;;;4.40;;
1799;SDS011;919;48.274;12.292;2023-12-28T10:17:29;4.70;;;4.30;;
1799;SDS011;919;48.274;12.292;2023-12-28T10:19:58;4.67;;;3.67;;
1799;SDS011;919;48.274;12.292;2023-12-28T10:22:29;4.33;;;3.93;;
1799;SDS011;919;48.274;12.292;2023-12-28T10:24:55;4.80;;;4.23;;
1799;SDS011;919;48.274;12.292;2023-12-28T10:27:25;8.07;;;5.23;;
1799;SDS011;919;48.274;12.292;2023-12-28T10:29:53;5.23;;;4.47;;
1799;SDS011;919;48.274;12.292;2023-12-28T10:32:20;5.10;;;3.90;;
1799;SDS011;919;48.274;12.292;2023-12-28T10:34:48;4.07;;;3.67;;
1799;SDS011;919;48.274;12.292;2023-12-28T10:37:15;5.93;;;4.60;;
1799;SDS011;919;48.274;12.292;2023-12-28T10:39:45;4.10;;;3.60;;
1799;SDS011;919;48.274;12.292;2023-12-28T10:42:14;5.70;;;3.80;;
1799;SDS011;919;48.274;12.292;2023-12-28T10:44:49;4.37;;;3.87;;
1799;SDS011;919;48.274;12.292;2023-12-28T10:47:21;3.27;;;3.03;;
1799;SDS011;919;48.274;12.292;2023-12-28T10:49:52;4.10;;;3.30;;
1799;SDS011;919;48.274;12.292;2023-12-28T10:52:21;5.30;;;3.60;;
1799;SDS011;919;48.274;12.292;2023-12-28T10:54:55;4.33;;;3.93;;
1799;SDS011;919;48.274;12.292;2023-12-28T10:57:29;4.33;;;3.87;;
1799;SDS011;919;48.274;12.292;2023-12-28T11:00:07;4.17;;;3.77;;
1799;SDS011;919;48.274;12.292;2023-12-28T11:02:38;5.03;;;4.53;;
1799;SDS011;919;48.274;12.292;2023-12-28T11:05:07;3.87;;;3.57;;
1799;SDS011;919;48.274;12.292;2023-12-28T11:07:34;3.93;;;3.63;;
1799;SDS011;919;48.274;12.292;2023-12-28T11:10:03;7.20;;;3.97;;
1799;SDS011;919;48.274;12.292;2023-12-28T11:12:32;5.07;;;4.23;;
1799;SDS011;919;48.274;12.292;2023-12-28T11:15:00;4.83;;;4.27;;
1799;SDS011;919;48.274;12.292;2023-12-28T11:17:31;4.63;;;4.13;;
1799;SDS011;919;48.274;12.292;2023-12-28T11:19:58;4.33;;;4.00;;
1799;SDS011;919;48.274;12.292;2023-12-28T11:22:25;4.70;;;4.03;;
1799;SDS011;919;48.274;12.292;2023-12-28T11:24:53;4.37;;;3.97;;
1799;SDS011;919;48.274;12.292;2023-12-28T11:27:20;6.07;;;4.03;;
1799;SDS011;919;48.274;12.292;2023-12-28T11:29:47;5.70;;;5.00;;
1799;SDS011;919;48.274;12.292;2023-12-28T11:32:14;6.10;;;4.03;;
1799;SDS011;919;48.274;12.292;2023-12-28T11:34:43;4.10;;;3.70;;
1799;SDS011;919;48.274;12.292;2023-12-28T11:37:12;5.40;;;4.40;;
1799;SDS011;919;48.274;12.292;2023-12-28T11:39:43;5.60;;;4.20;;
1799;SDS011;919;48.274;12.292;2023-12-28T11:42:10;5.10;;;4.40;;
1799;SDS011;919;48.274;12.292;2023-12-28T11:44:37;5.27;;;4.77;;
1799;SDS011;919;48.274;12.292;2023-12-28T11:47:10;5.03;;;4.57;;
1799;SDS011;919;48.274;12.292;2023-12-28T11:49:37;6.23;;;4.70;;
1799;SDS011;919;48.274;12.292;2023-12-28T11:52:07;6.20;;;4.50;;
1799;SDS011;919;48.274;12.292;2023-12-28T11:54:36;4.83;;;4.37;;
1799;SDS011;919;48.274;12.292;2023-12-28T11:57:02;5.47;;;4.63;;
1799;SDS011;919;48.274;12.292;2023-12-28T11:59:29;4.47;;;4.07;;
1799;SDS011;919;48.274;12.292;2023-12-28T12:01:58;5.47;;;4.10;;
1799;SDS011;919;48.274;12.292;2023-12-28T12:04:25;5.50;;;4.90;;
1799;SDS011;919;48.274;12.292;2023-12-28T12:06:52;5.30;;;4.50;;
1799;SDS011;919;48.274;12.292;2023-12-28T12:09:20;8.17;;;4.83;;
1799;SDS011;919;48.274;12.292;2023-12-28T12:11:47;5.07;;;4.67;;
1799;SDS011;919;48.274;12.292;2023-12-28T12:14:14;6.50;;;4.77;;
1799;SDS011;919;48.274;12.292;2023-12-28T12:16:41;4.10;;;3.80;;
1799;SDS011;919;48.274;12.292;2023-12-28T12:19:08;5.07;;;4.60;;
1799;SDS011;919;48.274;12.292;2023-12-28T12:21:35;6.10;;;4.70;;
1799;SDS011;919;48.274;12.292;2023-12-28T12:24:02;4.30;;;3.90;;
1799;SDS011;919;48.274;12.292;2023-12-28T12:26:31;5.00;;;4.40;;
1799;SDS011;919;48.274;12.292;2023-12-28T12:29:01;5.77;;;4.77;;
1799;SDS011;919;48.274;12.292;2023-12-28T12:31:27;7.17;;;4.90;;
1799;SDS011;919;48.274;12.292;2023-12-28T12:33:55;4.83;;;4.40;;
1799;SDS011;919;48.274;12.292;2023-12-28T12:36:21;4.70;;;4.10;;
1799;SDS011;919;48.274;12.292;2023-12-28T12:38:48;4.60;;;4.30;;
1799;SDS011;919;48.274;12.292;2023-12-28T12:41:15;5.80;;;5.30;;
1799;SDS011;919;48.274;12.292;2023-12-28T12:43:43;5.47;;;4.90;;
1799;SDS011;919;48.274;12.292;2023-12-28T12:46:11;5.43;;;4.90;;
1799;SDS011;919;48.274;12.292;2023-12-28T12:48:38;5.00;;;4.50;;
1799;SDS011;919;48.274;12.292;2023-12-28T12:51:05;4.67;;;4.23;;
1799;SDS011;919;48.274;12.292;2023-12-28T12:53:35;3.97;;;3.50;;
1799;SDS011;919;48.274;12.292;2023-12-28T12:56:02;5.23;;;4.73;;
1799;SDS011;919;48.274;12.292;2023-12-28T12:58:30;5.67;;;4.30;;
1799;SDS011;919;48.274;12.292;2023-12-28T13:00:58;5.37;;;4.80;;
1799;SDS011;919;48.274;12.292;2023-12-28T13:03:27;5.40;;;3.80;;
1799;SDS011;919;48.274;12.292;2023-12-28T13:05:54;4.87;;;3.70;;
1799;SDS011;919;48.274;12.292;2023-12-28T13:08:21;5.67;;;3.90;;
1799;SDS011;919;48.274;12.292;2023-12-28T13:10:48;4.10;;;3.67;;
1799;SDS011;919;48.274;12.292;2023-12-28T13:13:16;3.53;;;3.07;;
1799;SDS011;919;48.274;12.292;2023-12-28T13:15:42;8.20;;;3.73;;
1799;SDS011;919;48.274;12.292;2023-12-28T13:18:10;4.03;;;2.87;;
1799;SDS011;919;48.274;12.292;2023-12-28T13:20:37;3.50;;;3.20;;
1799;SDS011;919;48.274;12.292;2023-12-28T13:23:04;3.00;;;2.67;;
1799;SDS011;919;48.274;12.292;2023-12-28T13:25:30;3.43;;;2.97;;
1799;SDS011;919;48.274;12.292;2023-12-28T13:27:57;4.27;;;3.10;;
1799;SDS011;919;48.274;12.292;2023-12-28T13:30:24;3.13;;;2.87;;
1799;SDS011;919;48.274;12.292;2023-12-28T13:32:53;2.70;;;2.40;;
1799;SDS011;919;48.274;12.292;2023-12-28T13:35:22;4.00;;;2.93;;
1799;SDS011;919;48.274;12.292;2023-12-28T13:37:49;3.23;;;2.93;;
1799;SDS011;919;48.274;12.292;2023-12-28T13:40:16;3.00;;;2.80;;
1799;SDS011;919;48.274;12.292;2023-12-28T13:42:42;3.00;;;2.57;;
1799;SDS011;919;48.274;12.292;2023-12-28T13:45:09;2.83;;;2.03;;
1799;SDS011;919;48.274;12.292;2023-12-28T13:47:36;2.47;;;2.27;;
1799;SDS011;919;48.274;12.292;2023-12-28T13:50:03;2.40;;;2.20;;
1799;SDS011;919;48.274;12.292;2023-12-28T13:52:32;2.47;;;2.23;;
1799;SDS011;919;48.274;12.292;2023-12-28T13:54:59;2.53;;;2.20;;
1799;SDS011;919;48.274;12.292;2023-12-28T13:57:26;3.27;;;2.37;;
1799;SDS011;919;48.274;12.292;2023-12-28T13:59:52;2.30;;;2.10;;
1799;SDS011;919;48.274;12.292;2023-12-28T14:02:21;2.83;;;1.83;;
1799;SDS011;919;48.274;12.292;2023-12-28T14:04:48;1.97;;;1.80;;
1799;SDS011;919;48.274;12.292;2023-12-28T14:07:14;2.07;;;1.50;;
1799;SDS011;919;48.274;12.292;2023-12-28T14:09:42;1.97;;;1.87;;
1799;SDS011;919;48.274;12.292;2023-12-28T14:12:09;1.80;;;1.70;;
1799;SDS011;919;48.274;12.292;2023-12-28T14:14:36;2.07;;;1.80;;
1799;SDS011;919;48.274;12.292;2023-12-28T14:17:02;3.73;;;2.30;;
1799;SDS011;919;48.274;12.292;2023-12-28T14:19:29;2.20;;;1.87;;
1799;SDS011;919;48.274;12.292;2023-12-28T14:21:57;2.50;;;1.93;;
1799;SDS011;919;48.274;12.292;2023-12-28T14:24:24;2.60;;;1.87;;
1799;SDS011;919;48.274;12.292;2023-12-28T14:26:53;3.90;;;1.97;;
1799;SDS011;919;48.274;12.292;2023-12-28T14:29:20;1.90;;;1.60;;
1799;SDS011;919;48.274;12.292;2023-12-28T14:31:48;2.60;;;2.00;;
1799;SDS011;919;48.274;12.292;2023-12-28T14:34:15;2.10;;;2.00;;
1799;SDS011;919;48.274;12.292;2023-12-28T14:36:42;2.20;;;1.73;;
1799;SDS011;919;48.274;12.292;2023-12-28T14:39:14;2.30;;;1.70;;
1799;SDS011;919;48.274;12.292;2023-12-28T14:41:43;1.73;;;1.63;;
1799;SDS011;919;48.274;12.292;2023-12-28T14:44:11;2.37;;;2.17;;
1799;SDS011;919;48.274;12.292;2023-12-28T14:46:38;2.80;;;2.20;;
1799;SDS011;919;48.274;12.292;2023-12-28T14:49:05;3.23;;;2.20;;
1799;SDS011;919;48.274;12.292;2023-12-28T14:51:31;2.63;;;2.43;;
1799;SDS011;919;48.274;12.292;2023-12-28T14:53:58;2.60;;;2.33;;
1799;SDS011;919;48.274;12.292;2023-12-28T14:56:25;1.80;;;1.70;;
1799;SDS011;919;48.274;12.292;2023-12-28T14:58:51;2.63;;;2.17;;
1799;SDS011;919;48.274;12.292;2023-12-28T15:01:20;2.53;;;2.07;;
1799;SDS011;919;48.274;12.292;2023-12-28T15:03:47;2.03;;;1.83;;
1799;SDS011;919;48.274;12.292;2023-12-28T15:06:14;2.43;;;2.13;;
1799;SDS011;919;48.274;12.292;2023-12-28T15:08:41;2.60;;;2.30;;
1799;SDS011;919;48.274;12.292;2023-12-28T15:11:08;2.83;;;2.33;;
1799;SDS011;919;48.274;12.292;2023-12-28T15:13:36;1.60;;;1.50;;
1799;SDS011;919;48.274;12.292;2023-12-28T15:16:03;2.10;;;1.90;;